createdAt,value
2023-02-11T00:00:38.706Z,1023.97
2023-02-11T00:01:38.716Z,1023.91
2023-02-11T00:02:38.653Z,1024.06
2023-02-11T00:03:38.814Z,1023.96
2023-02-11T00:04:38.644Z,1023.98
2023-02-11T00:05:38.653Z,1023.89
2023-02-11T00:06:38.611Z,1023.94
2023-02-11T00:07:38.619Z,1024.02
2023-02-11T00:08:38.607Z,1024.01
2023-02-11T00:09:38.586Z,1024.01
2023-02-11T00:10:38.568Z,1024.01
2023-02-11T00:11:38.588Z,1024.09
2023-02-11T00:12:38.713Z,1024.02
2023-02-11T00:13:38.571Z,1024.06
2023-02-11T00:14:38.521Z,1024.04
2023-02-11T00:15:38.537Z,1024.06
2023-02-11T00:16:38.580Z,1024.03
2023-02-11T00:17:38.500Z,1024.10
2023-02-11T00:18:38.501Z,1024.10
2023-02-11T00:19:38.528Z,1024.11
2023-02-11T00:20:38.506Z,1024.15
2023-02-11T00:21:38.491Z,1024.14
2023-02-11T00:22:38.468Z,1024.16
2023-02-11T00:23:38.706Z,1024.16
2023-02-11T00:24:38.433Z,1024.07
2023-02-11T00:25:38.442Z,1024.16
2023-02-11T00:26:38.407Z,1024.10
2023-02-11T00:27:38.414Z,1024.12
2023-02-11T00:28:38.411Z,1024.11
2023-02-11T00:29:38.394Z,1024.10
2023-02-11T00:30:38.516Z,1024.08
2023-02-11T00:31:38.478Z,1024.05
2023-02-11T00:32:38.374Z,1024.06
2023-02-11T00:33:38.419Z,1024.04
2023-02-11T00:34:38.329Z,1023.91
2023-02-11T00:35:38.336Z,1023.90
2023-02-11T00:36:38.288Z,1023.98
2023-02-11T00:37:38.321Z,1023.94
2023-02-11T00:38:38.348Z,1023.98
2023-02-11T00:39:38.300Z,1024.08
2023-02-11T00:40:38.244Z,1023.99
2023-02-11T00:41:38.246Z,1024.00
2023-02-11T00:42:38.219Z,1024.03
2023-02-11T00:43:38.684Z,1024.16
2023-02-11T00:44:38.202Z,1024.17
2023-02-11T00:45:38.214Z,1024.13
2023-02-11T00:46:38.189Z,1024.11
2023-02-11T00:47:38.188Z,1024.08
2023-02-11T00:48:38.163Z,1024.03
2023-02-11T00:49:38.158Z,1024.05
2023-02-11T00:50:38.127Z,1024.03
2023-02-11T00:51:38.147Z,1024.12
2023-02-11T00:52:48.100Z,1024.21
2023-02-11T00:53:38.105Z,1024.15
2023-02-11T00:54:39.781Z,1024.16
2023-02-11T00:55:38.838Z,1024.17
2023-02-11T00:56:38.066Z,1024.17
2023-02-11T00:57:38.052Z,1024.27
2023-02-11T00:58:38.079Z,1024.27
2023-02-11T00:59:38.061Z,1024.30
2023-02-11T01:00:38.026Z,1024.34
2023-02-11T01:01:38.052Z,1024.39
2023-02-11T01:02:38.023Z,1024.30
2023-02-11T01:03:38.004Z,1024.35
2023-02-11T01:04:38.001Z,1024.34
2023-02-11T01:05:38.026Z,1024.34
2023-02-11T01:06:37.972Z,1024.38
2023-02-11T01:07:37.954Z,1024.34
2023-02-11T01:08:37.954Z,1024.36
2023-02-11T01:09:37.958Z,1024.37
2023-02-11T01:10:37.921Z,1024.43
2023-02-11T01:11:37.928Z,1024.34
2023-02-11T01:12:37.915Z,1024.52
2023-02-11T01:13:37.887Z,1024.33
2023-02-11T01:14:37.950Z,1024.17
2023-02-11T01:15:37.948Z,1024.15
2023-02-11T01:16:37.836Z,1024.15
2023-02-11T01:17:37.885Z,1024.16
2023-02-11T01:18:37.834Z,1024.01
2023-02-11T01:19:37.828Z,1023.90
2023-02-11T01:20:37.828Z,1023.92
2023-02-11T01:21:37.823Z,1023.93
2023-02-11T01:22:37.804Z,1023.96
2023-02-11T01:23:37.789Z,1023.83
2023-02-11T01:24:37.766Z,1023.92
2023-02-11T01:25:37.766Z,1023.96
2023-02-11T01:26:37.769Z,1023.82
2023-02-11T01:27:37.765Z,1023.96
2023-02-11T01:28:37.773Z,1023.91
2023-02-11T01:29:37.720Z,1023.98
2023-02-11T01:30:37.706Z,1023.96
2023-02-11T01:31:37.807Z,1023.87
2023-02-11T01:32:37.687Z,1023.95
2023-02-11T01:33:37.692Z,1023.86
2023-02-11T01:34:37.657Z,1023.86
2023-02-11T01:35:37.681Z,1023.73
2023-02-11T01:36:37.638Z,1023.80
2023-02-11T01:37:37.658Z,1023.77
2023-02-11T01:38:37.601Z,1023.85
2023-02-11T01:39:37.642Z,1023.91
2023-02-11T01:40:37.610Z,1023.87
2023-02-11T01:41:37.625Z,1023.79
2023-02-11T01:42:37.569Z,1023.85
2023-02-11T01:43:37.582Z,1023.80
2023-02-11T01:47:21.365Z,1023.93
2023-02-11T01:48:21.269Z,1023.93
2023-02-11T01:49:21.283Z,1023.88
2023-02-11T01:50:21.257Z,1023.82
2023-02-11T01:51:21.236Z,1023.85
2023-02-11T01:52:21.211Z,1023.86
2023-02-11T01:53:21.226Z,1023.93
2023-02-11T01:54:21.212Z,1023.89
2023-02-11T01:55:21.193Z,1023.88
2023-02-11T01:56:21.185Z,1023.86
2023-02-11T01:57:21.171Z,1023.88
2023-02-11T01:58:21.176Z,1023.87
2023-02-11T01:59:21.148Z,1023.90
2023-02-11T02:00:21.127Z,1023.88
2023-02-11T02:01:21.135Z,1023.88
2023-02-11T02:02:21.103Z,1023.86
2023-02-11T02:03:21.107Z,1023.89
2023-02-11T02:04:21.110Z,1023.87
2023-02-11T02:05:21.082Z,1023.84
2023-02-11T02:06:21.095Z,1023.88
2023-02-11T02:07:21.049Z,1023.75
2023-02-11T02:08:21.104Z,1023.83
2023-02-11T02:09:21.022Z,1023.85
2023-02-11T02:10:21.018Z,1023.79
2023-02-11T02:11:21.001Z,1023.79
2023-02-11T02:12:21.010Z,1023.73
2023-02-11T02:13:20.988Z,1023.71
2023-02-11T02:14:20.985Z,1023.67
2023-02-11T02:15:20.955Z,1023.69
2023-02-11T02:16:21.026Z,1023.72
2023-02-11T02:17:20.962Z,1023.66
2023-02-11T02:18:20.981Z,1023.73
2023-02-11T02:19:20.901Z,1023.60
2023-02-11T02:20:20.922Z,1023.66
2023-02-11T02:21:20.898Z,1023.66
2023-02-11T02:22:20.896Z,1023.55
2023-02-11T02:23:20.885Z,1023.50
2023-02-11T02:24:20.863Z,1023.51
2023-02-11T02:25:20.857Z,1023.56
2023-02-11T02:26:20.862Z,1023.48
2023-02-11T02:27:20.846Z,1023.49
2023-02-11T02:28:20.876Z,1023.52
2023-02-11T02:29:20.808Z,1023.52
2023-02-11T02:30:20.838Z,1023.47
2023-02-11T02:31:20.839Z,1023.50
2023-02-11T02:32:20.793Z,1023.56
2023-02-11T02:33:22.681Z,1023.50
2023-02-11T02:34:20.760Z,1023.51
2023-02-11T02:35:20.746Z,1023.48
2023-02-11T02:36:20.734Z,1023.50
2023-02-11T02:37:20.725Z,1023.43
2023-02-11T02:38:20.705Z,1023.40
2023-02-11T02:39:20.730Z,1023.46
2023-02-11T02:40:20.694Z,1023.41
2023-02-11T02:41:20.692Z,1023.52
2023-02-11T02:42:20.657Z,1023.45
2023-02-11T02:43:20.673Z,1023.45
2023-02-11T02:44:20.647Z,1023.48
2023-02-11T02:45:20.640Z,1023.54
2023-02-11T02:46:20.681Z,1023.50
2023-02-11T02:47:20.627Z,1023.58
2023-02-11T02:48:20.601Z,1023.48
2023-02-11T02:49:20.883Z,1023.51
2023-02-11T02:50:20.579Z,1023.64
2023-02-11T02:51:20.608Z,1023.50
2023-02-11T02:52:20.587Z,1023.49
2023-02-11T02:53:20.579Z,1023.50
2023-02-11T02:54:20.538Z,1023.47
2023-02-11T02:55:20.527Z,1023.45
2023-02-11T02:56:20.527Z,1023.50
2023-02-11T02:57:20.550Z,1023.42
2023-02-11T02:58:20.507Z,1023.46
2023-02-11T02:59:20.504Z,1023.43
2023-02-11T03:00:20.480Z,1023.40
2023-02-11T03:01:20.480Z,1023.53
2023-02-11T03:02:20.468Z,1023.41
2023-02-11T03:03:20.476Z,1023.31
2023-02-11T03:04:20.426Z,1023.38
2023-02-11T03:05:20.451Z,1023.37
2023-02-11T03:06:20.422Z,1023.35
2023-02-11T03:07:20.419Z,1023.41
2023-02-11T03:08:20.409Z,1023.38
2023-02-11T03:09:20.405Z,1023.31
2023-02-11T03:10:20.359Z,1023.34
2023-02-11T03:11:20.354Z,1023.29
2023-02-11T03:12:20.345Z,1023.31
2023-02-11T03:13:20.335Z,1023.27
2023-02-11T03:14:20.306Z,1023.21
2023-02-11T03:15:20.310Z,1023.26
2023-02-11T03:16:20.364Z,1023.21
2023-02-11T03:17:20.307Z,1023.27
2023-02-11T03:18:20.314Z,1023.20
2023-02-11T03:19:20.286Z,1023.23
2023-02-11T03:20:20.307Z,1023.24
2023-02-11T03:21:20.270Z,1023.11
2023-02-11T03:22:20.237Z,1023.13
2023-02-11T03:23:20.255Z,1023.13
2023-02-11T03:24:20.215Z,1023.01
2023-02-11T03:25:20.214Z,1023.13
2023-02-11T03:26:20.195Z,1023.14
2023-02-11T03:27:20.214Z,1023.21
2023-02-11T03:28:20.239Z,1023.19
2023-02-11T03:29:20.165Z,1023.24
2023-02-11T03:30:20.158Z,1023.18
2023-02-11T03:31:20.243Z,1023.19
2023-02-11T03:32:20.174Z,1023.16
2023-02-11T03:33:20.127Z,1023.24
2023-02-11T03:34:20.112Z,1023.22
2023-02-11T03:35:20.099Z,1023.24
2023-02-11T03:36:20.079Z,1023.18
2023-02-11T03:37:20.067Z,1023.14
2023-02-11T03:38:20.810Z,1023.15
2023-02-11T03:39:20.050Z,1023.14
2023-02-11T03:40:20.068Z,1023.07
2023-02-11T03:41:20.045Z,1023.06
2023-02-11T03:42:20.009Z,1023.07
2023-02-11T03:43:20.012Z,1023.03
2023-02-11T03:44:19.998Z,1023.00
2023-02-11T03:45:20.026Z,1023.00
2023-02-11T03:46:20.068Z,1023.06
2023-02-11T03:47:19.981Z,1023.00
2023-02-11T03:48:19.948Z,1023.09
2023-02-11T03:49:19.940Z,1023.06
2023-02-11T03:50:19.966Z,1023.16
2023-02-11T03:51:20.073Z,1023.24
2023-02-11T03:52:19.890Z,1023.15
2023-02-11T03:53:19.912Z,1023.16
2023-02-11T03:54:19.879Z,1023.18
2023-02-11T03:55:19.903Z,1023.16
2023-02-11T03:56:19.879Z,1023.13
2023-02-11T03:57:19.893Z,1023.18
2023-02-11T03:58:19.834Z,1023.13
2023-02-11T03:59:19.851Z,1023.14
2023-02-11T04:00:19.833Z,1023.16
2023-02-11T04:01:19.944Z,1023.16
2023-02-11T04:02:19.809Z,1023.16
2023-02-11T04:03:19.936Z,1023.21
2023-02-11T04:04:19.809Z,1023.13
2023-02-11T04:05:19.780Z,1023.16
2023-02-11T04:06:19.760Z,1023.15
2023-02-11T04:07:19.780Z,1023.19
2023-02-11T04:08:19.736Z,1023.23
2023-02-11T04:09:19.754Z,1023.24
2023-02-11T04:10:19.713Z,1023.16
2023-02-11T04:11:19.717Z,1023.24
2023-02-11T04:12:19.710Z,1023.17
2023-02-11T04:13:19.706Z,1023.24
2023-02-11T04:14:19.671Z,1023.16
2023-02-11T04:15:19.688Z,1023.24
2023-02-11T04:16:19.703Z,1023.19
2023-02-11T04:17:19.655Z,1023.24
2023-02-11T04:18:19.661Z,1023.23
2023-02-11T04:19:19.630Z,1023.30
2023-02-11T04:20:19.640Z,1023.20
2023-02-11T04:21:19.621Z,1023.26
2023-02-11T04:22:19.623Z,1023.25
2023-02-11T04:23:19.591Z,1023.32
2023-02-11T04:24:19.600Z,1023.18
2023-02-11T04:25:19.561Z,1023.21
2023-02-11T04:26:19.546Z,1023.23
2023-02-11T04:27:19.533Z,1023.22
2023-02-11T04:28:19.560Z,1023.17
2023-02-11T04:29:19.535Z,1023.12
2023-02-11T04:30:19.518Z,1023.15
2023-02-11T04:31:19.640Z,1023.17
2023-02-11T04:32:19.479Z,1023.12
2023-02-11T04:33:19.507Z,1023.12
2023-02-11T04:34:19.458Z,1023.15
2023-02-11T04:35:19.479Z,1023.13
2023-02-11T04:36:19.445Z,1023.03
2023-02-11T04:37:19.449Z,1023.02
2023-02-11T04:38:19.435Z,1023.04
2023-02-11T04:39:19.426Z,1023.04
2023-02-11T04:40:19.400Z,1022.99
2023-02-11T04:41:19.395Z,1023.09
2023-02-11T04:42:19.376Z,1022.87
2023-02-11T04:43:19.396Z,1022.90
2023-02-11T04:44:19.355Z,1022.94
2023-02-11T04:45:19.369Z,1022.93
2023-02-11T04:46:19.391Z,1022.96
2023-02-11T04:47:19.324Z,1022.95
2023-02-11T04:48:19.312Z,1023.01
2023-02-11T04:49:19.334Z,1023.06
2023-02-11T04:50:19.300Z,1023.01
2023-02-11T04:51:19.315Z,1023.07
2023-02-11T04:52:19.266Z,1023.01
2023-02-11T04:53:19.536Z,1023.16
2023-02-11T04:54:19.247Z,1023.09
2023-02-11T04:55:19.253Z,1023.18
2023-02-11T04:56:19.230Z,1023.12
2023-02-11T04:57:19.227Z,1023.09
2023-02-11T04:58:19.204Z,1023.13
2023-02-11T04:59:19.190Z,1023.19
2023-02-11T05:00:19.178Z,1023.05
2023-02-11T05:01:19.227Z,1023.26
2023-02-11T05:02:19.171Z,1023.14
2023-02-11T05:03:19.147Z,1023.12
2023-02-11T05:04:19.187Z,1023.14
2023-02-11T05:05:19.136Z,1023.13
2023-02-11T05:06:19.174Z,1023.13
2023-02-11T05:07:19.147Z,1023.06
2023-02-11T05:08:19.099Z,1023.10
2023-02-11T05:09:19.099Z,1023.01
2023-02-11T05:10:19.069Z,1023.03
2023-02-11T05:11:19.087Z,1023.06
2023-02-11T05:12:19.051Z,1022.99
2023-02-11T05:13:19.049Z,1023.01
2023-02-11T05:14:19.043Z,1023.08
2023-02-11T05:15:19.029Z,1023.03
2023-02-11T05:16:19.071Z,1023.04
2023-02-11T05:17:19.049Z,1022.93
2023-02-11T05:18:18.978Z,1023.07
2023-02-11T05:19:18.995Z,1023.02
2023-02-11T05:20:18.969Z,1022.99
2023-02-11T05:21:18.981Z,1022.99
2023-02-11T05:22:18.953Z,1023.05
2023-02-11T05:23:18.978Z,1023.09
2023-02-11T05:24:19.164Z,1023.09
2023-02-11T05:25:18.965Z,1023.03
2023-02-11T05:26:18.893Z,1022.97
2023-02-11T05:27:25.904Z,1023.00
2023-02-11T05:28:18.902Z,1022.99
2023-02-11T05:29:18.890Z,1023.04
2023-02-11T05:30:20.534Z,1023.09
2023-02-11T05:31:18.953Z,1022.99
2023-02-11T05:32:18.840Z,1023.11
2023-02-11T05:33:18.847Z,1022.98
2023-02-11T05:34:18.828Z,1022.91
2023-02-11T05:35:18.810Z,1022.88
2023-02-11T05:36:18.800Z,1022.93
2023-02-11T05:37:18.837Z,1022.80
2023-02-11T05:38:18.769Z,1022.77
2023-02-11T05:39:18.784Z,1022.98
2023-02-11T05:40:18.770Z,1023.12
2023-02-11T05:41:18.751Z,1022.96
2023-02-11T05:42:18.723Z,1023.07
2023-02-11T05:43:18.715Z,1022.86
2023-02-11T05:44:18.704Z,1022.79
2023-02-11T05:45:18.694Z,1022.85
2023-02-11T05:46:18.697Z,1022.89
2023-02-11T05:47:18.679Z,1022.93
2023-02-11T05:48:18.668Z,1023.09
2023-02-11T05:49:18.664Z,1023.00
2023-02-11T05:50:18.639Z,1023.00
2023-02-11T05:51:18.652Z,1023.06
2023-02-11T05:52:18.622Z,1023.16
2023-02-11T05:53:18.610Z,1023.17
2023-02-11T05:54:18.676Z,1023.01
2023-02-11T05:55:18.605Z,1023.18
2023-02-11T05:56:18.579Z,1023.01
2023-02-11T05:57:18.593Z,1022.96
2023-02-11T05:58:18.550Z,1022.98
2023-02-11T05:59:18.565Z,1022.87
2023-02-11T06:00:18.538Z,1022.85
2023-02-11T06:01:18.538Z,1022.87
2023-02-11T06:02:18.552Z,1022.88
2023-02-11T06:03:18.542Z,1022.92
2023-02-11T06:04:18.596Z,1022.91
2023-02-11T06:05:18.524Z,1023.07
2023-02-11T06:06:18.476Z,1022.85
2023-02-11T06:07:18.460Z,1022.89
2023-02-11T06:08:19.092Z,1022.91
2023-02-11T06:09:18.458Z,1022.90
2023-02-11T06:10:18.411Z,1022.95
2023-02-11T06:11:18.428Z,1022.89
2023-02-11T06:12:18.409Z,1022.86
2023-02-11T06:13:19.367Z,1022.89
2023-02-11T06:14:18.381Z,1022.88
2023-02-11T06:15:18.410Z,1022.88
2023-02-11T06:16:18.430Z,1022.87
2023-02-11T06:17:18.397Z,1022.94
2023-02-11T06:18:18.346Z,1022.87
2023-02-11T06:19:18.350Z,1022.91
2023-02-11T06:20:18.319Z,1022.93
2023-02-11T06:21:18.312Z,1022.92
2023-02-11T06:22:18.274Z,1022.97
2023-02-11T06:23:18.288Z,1022.98
2023-02-11T06:24:33.137Z,1023.05
2023-02-11T06:25:19.334Z,1022.99
2023-02-11T06:26:18.241Z,1022.98
2023-02-11T06:27:18.242Z,1023.05
2023-02-11T06:28:18.265Z,1023.10
2023-02-11T06:29:18.231Z,1022.99
2023-02-11T06:30:18.203Z,1023.03
2023-02-11T06:31:18.352Z,1023.00
2023-02-11T06:32:39.510Z,1022.95
2023-02-11T06:33:19.175Z,1022.99
2023-02-11T06:34:18.161Z,1023.12
2023-02-11T06:35:18.179Z,1023.17
2023-02-11T06:36:18.142Z,1023.08
2023-02-11T06:37:18.146Z,1023.12
2023-02-11T06:38:18.121Z,1023.21
2023-02-11T06:39:18.119Z,1023.17
2023-02-11T06:40:18.104Z,1023.21
2023-02-11T06:41:18.102Z,1023.24
2023-02-11T06:42:18.083Z,1023.23
2023-02-11T06:43:18.091Z,1023.16
2023-02-11T06:44:18.061Z,1023.32
2023-02-11T06:45:18.054Z,1023.14
2023-02-11T06:46:18.127Z,1023.35
2023-02-11T06:47:18.034Z,1023.14
2023-02-11T06:48:18.011Z,1023.40
2023-02-11T06:49:17.993Z,1023.14
2023-02-11T06:50:18.017Z,1023.20
2023-02-11T06:51:18.012Z,1023.18
2023-02-11T06:52:18.003Z,1023.16
2023-02-11T06:53:17.989Z,1023.23
2023-02-11T06:54:17.974Z,1023.20
2023-02-11T06:55:17.936Z,1023.20
2023-02-11T06:56:18.410Z,1023.30
2023-02-11T06:57:17.917Z,1023.24
2023-02-11T06:58:17.919Z,1023.22
2023-02-11T06:59:17.912Z,1023.18
2023-02-11T07:00:17.925Z,1023.15
2023-02-11T07:01:17.880Z,1023.18
2023-02-11T07:02:20.720Z,1023.12
2023-02-11T07:03:17.915Z,1023.16
2023-02-11T07:04:17.846Z,1023.16
2023-02-11T07:05:17.846Z,1023.14
2023-02-11T07:06:17.821Z,1023.16
2023-02-11T07:07:17.815Z,1023.09
2023-02-11T07:08:17.835Z,1023.13
2023-02-11T07:09:17.787Z,1023.05
2023-02-11T07:10:17.802Z,1023.10
2023-02-11T07:11:17.757Z,1023.13
2023-02-11T07:12:17.762Z,1023.17
2023-02-11T07:13:17.780Z,1023.17
2023-02-11T07:14:17.736Z,1023.27
2023-02-11T07:15:17.729Z,1023.11
2023-02-11T07:16:17.757Z,1023.24
2023-02-11T07:17:17.698Z,1023.27
2023-02-11T07:18:17.696Z,1023.29
2023-02-11T07:19:17.667Z,1023.35
2023-02-11T07:20:17.691Z,1023.34
2023-02-11T07:21:17.684Z,1023.30
2023-02-11T07:22:17.662Z,1023.33
2023-02-11T07:23:17.647Z,1023.28
2023-02-11T07:24:17.657Z,1023.35
2023-02-11T07:25:17.621Z,1023.23
2023-02-11T07:26:17.613Z,1023.37
2023-02-11T07:27:17.627Z,1023.36
2023-02-11T07:28:18.594Z,1023.31
2023-02-11T07:29:17.583Z,1023.51
2023-02-11T07:30:17.561Z,1023.46
2023-02-11T07:31:17.620Z,1023.40
2023-02-11T07:32:17.624Z,1023.42
2023-02-11T07:33:17.525Z,1023.46
2023-02-11T07:34:17.592Z,1023.49
2023-02-11T07:35:17.518Z,1023.45
2023-02-11T07:36:17.524Z,1023.45
2023-02-11T07:37:17.508Z,1023.49
2023-02-11T07:38:17.473Z,1023.48
2023-02-11T07:39:17.472Z,1023.49
2023-02-11T07:40:17.475Z,1023.64
2023-02-11T07:41:17.464Z,1023.63
2023-02-11T07:42:17.456Z,1023.55
2023-02-11T07:43:17.452Z,1023.62
2023-02-11T07:44:17.440Z,1023.54
2023-02-11T07:45:18.273Z,1023.56
2023-02-11T07:46:17.413Z,1023.55
2023-02-11T07:47:17.391Z,1023.57
2023-02-11T07:48:17.372Z,1023.52
2023-02-11T07:49:17.358Z,1023.57
2023-02-11T07:50:17.365Z,1023.56
2023-02-11T07:51:17.342Z,1023.50
2023-02-11T07:52:17.332Z,1023.47
2023-02-11T07:53:17.303Z,1023.59
2023-02-11T07:54:17.315Z,1023.49
2023-02-11T07:55:17.302Z,1023.42
2023-02-11T07:56:17.288Z,1023.51
2023-02-11T07:57:17.264Z,1023.61
2023-02-11T07:58:17.469Z,1023.58
2023-02-11T07:59:17.238Z,1023.64
2023-02-11T08:00:19.988Z,1023.61
2023-02-11T08:01:17.368Z,1023.51
2023-02-11T08:02:17.348Z,1023.65
2023-02-11T08:03:17.448Z,1023.69
2023-02-11T08:04:17.204Z,1023.69
2023-02-11T08:05:17.199Z,1023.56
2023-02-11T08:06:17.186Z,1023.64
2023-02-11T08:07:17.147Z,1023.61
2023-02-11T08:08:17.173Z,1023.66
2023-02-11T08:09:17.157Z,1023.56
2023-02-11T08:10:17.134Z,1023.59
2023-02-11T08:11:17.140Z,1023.60
2023-02-11T08:12:17.107Z,1023.65
2023-02-11T08:13:17.181Z,1023.59
2023-02-11T08:14:17.107Z,1023.59
2023-02-11T08:15:17.098Z,1023.72
2023-02-11T08:16:17.122Z,1023.60
2023-02-11T08:17:17.045Z,1023.70
2023-02-11T08:18:17.041Z,1023.58
2023-02-11T08:19:17.044Z,1023.66
2023-02-11T08:20:17.027Z,1023.55
2023-02-11T08:21:17.010Z,1023.63
2023-02-11T08:22:17.004Z,1023.53
2023-02-11T08:23:16.982Z,1023.53
2023-02-11T08:24:16.994Z,1023.59
2023-02-11T08:25:16.986Z,1023.58
2023-02-11T08:26:16.977Z,1023.58
2023-02-11T08:27:16.942Z,1023.60
2023-02-11T08:28:16.989Z,1023.61
2023-02-11T08:29:16.936Z,1023.72
2023-02-11T08:30:16.915Z,1023.66
2023-02-11T08:31:17.085Z,1023.67
2023-02-11T08:32:16.935Z,1023.71
2023-02-11T08:33:16.875Z,1023.80
2023-02-11T08:34:16.868Z,1023.76
2023-02-11T08:35:16.853Z,1023.75
2023-02-11T08:36:16.847Z,1023.68
2023-02-11T08:37:16.842Z,1023.69
2023-02-11T08:38:16.827Z,1023.79
2023-02-11T08:39:19.752Z,1023.79
2023-02-11T08:40:16.834Z,1023.80
2023-02-11T08:41:16.784Z,1023.88
2023-02-11T08:42:16.785Z,1023.88
2023-02-11T08:43:16.791Z,1023.85
2023-02-11T08:44:16.782Z,1023.78
2023-02-11T08:45:16.735Z,1023.83
2023-02-11T08:46:16.854Z,1023.81
2023-02-11T08:47:16.746Z,1023.85
2023-02-11T08:48:16.725Z,1023.87
2023-02-11T08:49:16.716Z,1023.88
2023-02-11T08:50:16.702Z,1023.89
2023-02-11T08:51:16.683Z,1023.91
2023-02-11T08:52:16.684Z,1023.98
2023-02-11T08:53:16.669Z,1024.01
2023-02-11T08:54:16.683Z,1024.01
2023-02-11T08:55:16.677Z,1023.96
2023-02-11T08:56:16.620Z,1023.98
2023-02-11T08:57:16.621Z,1024.00
2023-02-11T08:58:19.095Z,1024.03
2023-02-11T08:59:16.814Z,1024.07
2023-02-11T09:00:16.654Z,1023.98
2023-02-11T09:01:16.606Z,1024.06
2023-02-11T09:02:16.638Z,1024.03
2023-02-11T09:03:16.555Z,1023.97
2023-02-11T09:04:16.544Z,1023.94
2023-02-11T09:05:16.530Z,1023.92
2023-02-11T09:06:16.562Z,1023.98
2023-02-11T09:07:16.538Z,1024.05
2023-02-11T09:08:16.518Z,1024.04
2023-02-11T09:09:16.513Z,1024.15
2023-02-11T09:10:16.536Z,1024.12
2023-02-11T09:11:16.470Z,1024.10
2023-02-11T09:12:16.468Z,1024.18
2023-02-11T09:13:16.469Z,1024.19
2023-02-11T09:14:16.449Z,1024.22
2023-02-11T09:15:16.405Z,1024.13
2023-02-11T09:16:16.448Z,1024.18
2023-02-11T09:17:16.409Z,1024.20
2023-02-11T09:18:16.410Z,1024.24
2023-02-11T09:19:16.442Z,1024.36
2023-02-11T09:20:16.381Z,1024.26
2023-02-11T09:21:16.340Z,1024.21
2023-02-11T09:22:16.356Z,1024.24
2023-02-11T09:23:18.530Z,1024.24
2023-02-11T09:24:16.335Z,1024.18
2023-02-11T09:25:16.320Z,1024.26
2023-02-11T09:26:16.304Z,1024.29
2023-02-11T09:27:16.310Z,1024.35
2023-02-11T09:28:16.298Z,1024.29
2023-02-11T09:29:16.278Z,1024.44
2023-02-11T09:30:16.318Z,1024.50
2023-02-11T09:31:16.435Z,1024.43
2023-02-11T09:32:16.420Z,1024.40
2023-02-11T09:33:16.229Z,1024.41
2023-02-11T09:34:16.244Z,1024.39
2023-02-11T09:35:16.182Z,1024.41
2023-02-11T09:36:16.214Z,1024.38
2023-02-11T09:37:16.182Z,1024.46
2023-02-11T09:38:16.178Z,1024.43
2023-02-11T09:39:16.160Z,1024.49
2023-02-11T09:40:16.172Z,1024.50
2023-02-11T09:41:16.127Z,1024.52
2023-02-11T09:42:16.165Z,1024.54
2023-02-11T09:43:16.143Z,1024.59
2023-02-11T09:44:16.105Z,1024.58
2023-02-11T09:45:16.098Z,1024.59
2023-02-11T09:46:16.272Z,1024.63
2023-02-11T09:47:16.144Z,1024.64
2023-02-11T09:48:16.099Z,1024.65
2023-02-11T09:49:16.046Z,1024.69
2023-02-11T09:50:16.037Z,1024.70
2023-02-11T09:51:16.066Z,1024.64
2023-02-11T09:52:16.030Z,1024.71
2023-02-11T09:53:16.007Z,1024.64
2023-02-11T09:54:16.022Z,1024.66
2023-02-11T09:55:15.981Z,1024.68
2023-02-11T09:56:15.983Z,1024.67
2023-02-11T09:57:27.876Z,1024.62
2023-02-11T09:58:16.974Z,1024.66
2023-02-11T09:59:15.946Z,1024.70
2023-02-11T10:00:16.039Z,1024.65
2023-02-11T10:01:16.032Z,1024.73
2023-02-11T10:02:15.937Z,1024.70
2023-02-11T10:03:15.930Z,1024.78
2023-02-11T10:04:16.257Z,1024.76
2023-02-11T10:05:15.878Z,1024.76
2023-02-11T10:06:15.907Z,1024.79
2023-02-11T10:07:15.865Z,1024.72
2023-02-11T10:08:16.995Z,1024.73
2023-02-11T10:09:15.854Z,1024.65
2023-02-11T10:10:15.835Z,1024.74
2023-02-11T10:11:30.650Z,1024.76
2023-02-11T10:12:16.816Z,1024.78
2023-02-11T10:13:15.795Z,1024.77
2023-02-11T10:14:15.815Z,1024.74
2023-02-11T10:15:15.794Z,1024.80
2023-02-11T10:16:15.831Z,1024.72
2023-02-11T10:17:15.771Z,1024.75
2023-02-11T10:18:15.745Z,1024.74
2023-02-11T10:19:15.723Z,1024.82
2023-02-11T10:20:17.036Z,1024.81
2023-02-11T10:21:15.704Z,1024.73
2023-02-11T10:22:15.747Z,1024.78
2023-02-11T10:23:15.689Z,1024.72
2023-02-11T10:24:15.704Z,1024.77
2023-02-11T10:25:15.656Z,1024.78
2023-02-11T10:26:15.671Z,1024.81
2023-02-11T10:27:15.668Z,1024.81
2023-02-11T10:28:15.775Z,1024.77
2023-02-11T10:29:15.718Z,1024.88
2023-02-11T10:30:15.656Z,1024.79
2023-02-11T10:31:15.777Z,1024.81
2023-02-11T10:32:15.742Z,1024.80
2023-02-11T10:33:15.604Z,1024.90
2023-02-11T10:34:15.570Z,1024.85
2023-02-11T10:35:15.570Z,1024.83
2023-02-11T10:36:15.555Z,1024.90
2023-02-11T10:37:15.543Z,1024.80
2023-02-11T10:38:15.570Z,1024.81
2023-02-11T10:39:15.508Z,1024.83
2023-02-11T10:40:15.508Z,1024.89
2023-02-11T10:41:15.571Z,1024.82
2023-02-11T10:42:15.483Z,1024.94
2023-02-11T10:43:15.481Z,1024.88
2023-02-11T10:44:15.476Z,1024.85
2023-02-11T10:45:15.455Z,1024.84
2023-02-11T10:46:15.485Z,1024.84
2023-02-11T10:47:15.462Z,1024.89
2023-02-11T10:48:16.487Z,1024.87
2023-02-11T10:49:15.406Z,1024.93
2023-02-11T10:50:15.386Z,1024.97
2023-02-11T10:51:15.384Z,1024.90
2023-02-11T10:52:15.397Z,1024.91
2023-02-11T10:53:15.343Z,1024.84
2023-02-11T10:54:15.376Z,1024.89
2023-02-11T10:55:15.347Z,1024.84
2023-02-11T10:56:15.326Z,1024.79
2023-02-11T10:57:15.334Z,1024.77
2023-02-11T10:58:15.331Z,1024.77
2023-02-11T10:59:15.322Z,1024.69
2023-02-11T11:00:15.311Z,1024.75
2023-02-11T11:01:24.301Z,1024.76
2023-02-11T11:02:16.315Z,1024.76
2023-02-11T11:03:15.281Z,1024.73
2023-02-11T11:04:15.234Z,1024.74
2023-02-11T11:05:15.237Z,1024.80
2023-02-11T11:06:15.236Z,1024.94
2023-02-11T11:07:15.222Z,1024.70
2023-02-11T11:08:15.216Z,1024.75
2023-02-11T11:09:15.200Z,1024.75
2023-02-11T11:10:15.223Z,1024.84
2023-02-11T11:11:15.191Z,1024.83
2023-02-11T11:12:15.174Z,1024.88
2023-02-11T11:13:15.171Z,1024.84
2023-02-11T11:14:15.124Z,1024.95
2023-02-11T11:15:15.150Z,1024.89
2023-02-11T11:16:15.159Z,1024.84
2023-02-11T11:17:15.114Z,1024.87
2023-02-11T11:18:21.907Z,1024.80
2023-02-11T11:19:16.423Z,1024.89
2023-02-11T11:20:15.080Z,1024.71
2023-02-11T11:21:15.082Z,1024.83
2023-02-11T11:22:15.033Z,1024.81
2023-02-11T11:23:15.043Z,1024.91
2023-02-11T11:24:15.025Z,1024.83
2023-02-11T11:25:15.035Z,1024.83
2023-02-11T11:26:15.019Z,1024.79
2023-02-11T11:27:15.005Z,1024.92
2023-02-11T11:28:15.102Z,1024.94
2023-02-11T11:29:14.991Z,1024.89
2023-02-11T11:30:14.967Z,1024.91
2023-02-11T11:31:15.173Z,1025.01
2023-02-11T11:32:14.936Z,1025.01
2023-02-11T11:33:14.963Z,1024.88
2023-02-11T11:34:14.905Z,1024.86
2023-02-11T11:35:14.929Z,1024.81
2023-02-11T11:36:14.894Z,1024.90
2023-02-11T11:37:14.889Z,1024.78
2023-02-11T11:38:14.898Z,1024.77
2023-02-11T11:39:14.856Z,1024.67
2023-02-11T11:40:14.852Z,1024.71
2023-02-11T11:41:14.860Z,1024.71
2023-02-11T11:42:14.837Z,1025.01
2023-02-11T11:43:14.848Z,1024.68
2023-02-11T11:44:14.799Z,1024.73
2023-02-11T11:45:14.807Z,1024.65
2023-02-11T11:46:14.802Z,1024.66
2023-02-11T11:47:14.789Z,1024.58
2023-02-11T11:48:14.758Z,1024.64
2023-02-11T11:49:14.760Z,1024.58
2023-02-11T11:50:14.737Z,1024.62
2023-02-11T11:51:14.764Z,1024.57
2023-02-11T11:52:14.704Z,1024.55
2023-02-11T11:53:14.710Z,1024.58
2023-02-11T11:54:14.722Z,1024.61
2023-02-11T11:55:14.700Z,1024.65
2023-02-11T11:56:14.663Z,1024.59
2023-02-11T11:57:14.678Z,1024.61
2023-02-11T11:58:14.658Z,1024.55
2023-02-11T11:59:14.635Z,1024.60
2023-02-11T12:00:14.684Z,1024.57
2023-02-11T12:01:14.622Z,1024.65
2023-02-11T12:02:14.680Z,1024.60
2023-02-11T12:03:14.658Z,1024.59
2023-02-11T12:04:14.795Z,1024.50
2023-02-11T12:05:14.585Z,1024.65
2023-02-11T12:06:14.578Z,1024.52
2023-02-11T12:07:14.556Z,1024.49
2023-02-11T12:08:14.532Z,1024.60